createdAt,value
2019-04-21T00:01:12.705Z,13.96
2019-04-21T00:03:50.225Z,13.90
2019-04-21T00:06:36.992Z,13.89
2019-04-21T00:09:12.855Z,13.81
2019-04-21T00:11:41.018Z,13.73
2019-04-21T00:14:05.637Z,13.76
2019-04-21T00:16:34.703Z,13.80
2019-04-21T00:19:29.868Z,13.72
2019-04-21T00:22:08.627Z,13.58
2019-04-21T00:24:45.070Z,13.42
2019-04-21T00:27:21.420Z,13.38
2019-04-21T00:29:51.884Z,13.32
2019-04-21T00:32:22.003Z,13.18
2019-04-21T00:34:43.274Z,13.11
2019-04-21T00:37:20.744Z,13.08
2019-04-21T00:40:05.958Z,12.97
2019-04-21T00:42:34.554Z,12.93
2019-04-21T00:45:01.856Z,12.80
2019-04-21T00:47:48.048Z,12.64
2019-04-21T00:50:10.839Z,12.50
2019-04-21T00:52:56.522Z,12.42
2019-04-21T00:55:33.942Z,12.43
2019-04-21T00:58:03.244Z,12.40
2019-04-21T01:00:36.366Z,12.36
2019-04-21T01:03:04.649Z,12.27
2019-04-21T01:05:43.918Z,12.35
2019-04-21T01:08:09.419Z,12.43
2019-04-21T01:10:31.987Z,12.34
2019-04-21T01:13:20.008Z,12.21
2019-04-21T01:15:49.721Z,12.10
2019-04-21T01:18:16.766Z,12.02
2019-04-21T01:20:29.278Z,11.99
2019-04-21T01:23:00.249Z,11.82
2019-04-21T01:25:39.326Z,11.72
2019-04-21T01:28:18.856Z,11.65
2019-04-21T01:30:56.883Z,11.74
2019-04-21T01:33:36.126Z,11.76
2019-04-21T01:35:59.557Z,11.72
2019-04-21T01:38:34.265Z,11.71
2019-04-21T01:41:07.646Z,11.58
2019-04-21T01:43:33.713Z,11.58
2019-04-21T01:46:11.223Z,11.51
2019-04-21T01:48:40.027Z,11.48
2019-04-21T01:51:14.245Z,11.57
2019-04-21T01:54:07.182Z,11.44
2019-04-21T01:56:46.550Z,11.39
2019-04-21T01:59:06.608Z,11.37
2019-04-21T02:01:54.182Z,11.41
2019-04-21T02:04:29.441Z,11.45
2019-04-21T02:07:01.004Z,11.44
2019-04-21T02:09:34.009Z,11.43
2019-04-21T02:12:10.598Z,11.38
2019-04-21T02:14:45.865Z,11.27
2019-04-21T02:17:13.199Z,11.14
2019-04-21T02:19:45.099Z,11.03
2019-04-21T02:22:19.170Z,10.94
2019-04-21T02:24:56.822Z,11.03
2019-04-21T02:27:23.437Z,11.12
2019-04-21T02:30:02.790Z,11.25
2019-04-21T02:32:43.498Z,11.25
2019-04-21T02:38:05.858Z,11.34
2019-04-21T02:42:56.087Z,11.16
2019-04-21T02:45:25.047Z,11.06
2019-04-21T02:48:06.977Z,10.90
2019-04-21T02:50:28.756Z,10.84
2019-04-21T02:53:09.690Z,10.84
2019-04-21T02:55:30.332Z,10.90
2019-04-21T02:58:17.853Z,10.95
2019-04-21T03:00:55.594Z,10.90
2019-04-21T03:03:56.243Z,10.87
2019-04-21T03:09:29.797Z,10.81
2019-04-21T03:11:56.011Z,10.84
2019-04-21T03:14:51.332Z,10.86
2019-04-21T03:16:47.237Z,10.84
2019-04-21T03:19:44.000Z,10.83
2019-04-21T03:22:06.734Z,10.84
2019-04-21T03:25:01.341Z,10.82
2019-04-21T03:27:17.189Z,10.80
2019-04-21T03:29:38.559Z,10.73
2019-04-21T03:35:25.707Z,10.60
2019-04-21T03:39:50.796Z,10.54
2019-04-21T03:42:26.865Z,10.57
2019-04-21T03:52:30.248Z,10.39
2019-04-21T03:58:19.688Z,10.25
2019-04-21T04:04:03.468Z,10.08
2019-04-21T04:06:27.342Z,9.94
2019-04-21T04:09:21.387Z,9.86
2019-04-21T04:11:51.353Z,9.86
2019-04-21T04:16:57.029Z,9.89
2019-04-21T04:19:30.150Z,9.90
2019-04-21T04:31:55.406Z,9.85
2019-04-21T04:34:40.753Z,9.84
2019-04-21T04:39:48.513Z,9.84
2019-04-21T04:42:41.629Z,9.85
2019-04-21T04:50:01.927Z,9.85
2019-04-21T04:52:45.686Z,9.96
2019-04-21T04:55:19.029Z,10.00
2019-04-21T05:00:25.784Z,10.06
2019-04-21T05:05:30.076Z,10.22
2019-04-21T05:08:28.762Z,10.29
2019-04-21T05:10:41.136Z,10.35
2019-04-21T05:13:06.087Z,10.47
2019-04-21T05:15:34.213Z,10.52
2019-04-21T05:18:05.288Z,10.57
2019-04-21T05:20:48.188Z,10.67
2019-04-21T05:23:05.910Z,10.74
2019-04-21T05:25:33.887Z,10.78
2019-04-21T05:28:06.448Z,10.84
2019-04-21T05:30:58.444Z,10.92
2019-04-21T05:33:38.079Z,10.98
2019-04-21T05:36:28.962Z,11.03
2019-04-21T05:39:30.229Z,11.10
2019-04-21T05:41:54.244Z,11.16
2019-04-21T05:44:57.161Z,11.23
2019-04-21T05:47:20.173Z,11.29
2019-04-21T05:49:49.757Z,11.38
2019-04-21T05:52:19.872Z,11.58
2019-04-21T05:55:06.346Z,11.58
2019-04-21T05:57:28.892Z,11.76
2019-04-21T05:59:59.455Z,11.89
2019-04-21T06:02:49.573Z,12.00
2019-04-21T06:07:53.728Z,12.23
2019-04-21T06:10:10.625Z,12.33
2019-04-21T06:12:51.060Z,12.50
2019-04-21T06:15:13.787Z,12.50
2019-04-21T06:17:48.846Z,12.75
2019-04-21T06:20:21.300Z,13.16
2019-04-21T06:22:56.836Z,13.27
2019-04-21T06:27:59.971Z,13.64
2019-04-21T06:30:34.834Z,14.35
2019-04-21T06:33:11.727Z,14.99
2019-04-21T06:38:54.089Z,15.56
2019-04-21T06:41:27.728Z,15.67
2019-04-21T06:46:33.536Z,15.93
2019-04-21T06:51:32.342Z,19.47
2019-04-21T06:54:09.173Z,19.47
2019-04-21T06:56:41.257Z,19.87
2019-04-21T06:59:23.453Z,20.04
2019-04-21T07:01:54.762Z,20.37
2019-04-21T07:06:48.214Z,20.46
2019-04-21T07:09:30.100Z,20.60
2019-04-21T07:11:52.855Z,20.39
2019-04-21T07:17:07.386Z,21.35
2019-04-21T07:19:35.210Z,21.70
2019-04-21T07:22:04.288Z,23.52
2019-04-21T07:24:41.743Z,23.93
2019-04-21T07:27:08.798Z,22.98
2019-04-21T07:29:47.496Z,22.29
2019-04-21T07:32:12.123Z,22.08
2019-04-21T07:34:46.980Z,21.62
2019-04-21T07:37:12.535Z,22.71
2019-04-21T07:39:46.913Z,25.09
2019-04-21T07:42:13.504Z,28.83
2019-04-21T07:44:45.976Z,33.57
2019-04-21T07:47:27.178Z,34.53
2019-04-21T07:50:22.647Z,34.53
2019-04-21T07:52:48.798Z,34.89
2019-04-21T07:57:45.671Z,33.17
2019-04-21T08:02:53.967Z,35.86
2019-04-21T08:05:27.981Z,36.62
2019-04-21T08:07:55.756Z,37.05
2019-04-21T08:10:33.693Z,38.94
2019-04-21T08:13:14.676Z,39.00
2019-04-21T08:15:40.151Z,37.15
2019-04-21T08:18:13.501Z,36.79
2019-04-21T08:20:41.910Z,38.68
2019-04-21T08:23:20.394Z,38.20
2019-04-21T08:26:04.650Z,38.58
2019-04-21T08:28:22.494Z,39.21
2019-04-21T08:30:56.778Z,41.22
2019-04-21T08:33:32.001Z,41.24
2019-04-21T08:36:16.141Z,41.92
2019-04-21T08:38:35.657Z,41.92
2019-04-21T08:46:06.701Z,41.24
2019-04-21T08:48:46.567Z,41.56
2019-04-21T08:54:01.391Z,41.02
2019-04-21T08:56:52.697Z,43.08
2019-04-21T08:59:43.814Z,43.21
2019-04-21T09:02:43.081Z,40.80
2019-04-21T09:05:15.433Z,40.98
2019-04-21T09:07:44.693Z,42.84
2019-04-21T09:10:17.595Z,44.00
2019-04-21T09:12:57.232Z,42.65
2019-04-21T09:15:28.036Z,41.71
2019-04-21T09:18:01.705Z,41.88
2019-04-21T09:20:46.012Z,42.89
2019-04-21T09:23:11.398Z,42.00
2019-04-21T09:25:46.550Z,41.90
2019-04-21T09:28:13.964Z,41.90
2019-04-21T09:30:33.814Z,41.94
2019-04-21T09:33:02.387Z,42.37
2019-04-21T09:35:33.532Z,44.25
2019-04-21T09:38:16.229Z,42.86
2019-04-21T09:40:43.892Z,42.23
2019-04-21T09:43:13.391Z,41.77
2019-04-21T09:45:45.309Z,41.98
2019-04-21T09:48:20.689Z,42.50
2019-04-21T09:50:50.416Z,41.38
2019-04-21T09:53:29.440Z,39.62
2019-04-21T09:55:59.350Z,40.28
2019-04-21T09:58:32.826Z,41.16
2019-04-21T10:01:10.790Z,38.24
2019-04-21T10:03:39.698Z,39.81
2019-04-21T10:06:02.844Z,40.87
2019-04-21T10:08:34.169Z,42.06
2019-04-21T10:11:05.399Z,41.19
2019-04-21T10:13:36.330Z,39.76
2019-04-21T10:16:26.086Z,39.26
2019-04-21T10:18:56.817Z,39.36
2019-04-21T10:21:28.045Z,40.41
2019-04-21T10:23:59.859Z,39.91
2019-04-21T10:26:30.573Z,39.65
2019-04-21T10:29:08.620Z,39.28
2019-04-21T10:31:34.541Z,38.90
2019-04-21T10:34:07.351Z,39.29
2019-04-21T10:36:37.956Z,36.44
2019-04-21T10:39:09.418Z,35.09
2019-04-21T10:41:41.539Z,35.09
2019-04-21T10:44:13.489Z,36.88
2019-04-21T10:46:46.905Z,37.11
2019-04-21T10:49:17.058Z,38.65
2019-04-21T10:51:48.985Z,37.93
2019-04-21T10:54:21.856Z,38.88
2019-04-21T10:56:52.624Z,38.49
2019-04-21T10:59:25.013Z,38.43
2019-04-21T11:01:56.785Z,37.86
2019-04-21T11:04:36.325Z,38.56
2019-04-21T11:07:16.339Z,40.49
2019-04-21T11:09:46.289Z,37.92
2019-04-21T11:12:17.614Z,37.91
2019-04-21T11:14:49.449Z,38.87
2019-04-21T11:17:20.109Z,38.30
2019-04-21T11:19:51.375Z,38.04
2019-04-21T11:22:23.046Z,37.56
2019-04-21T11:24:53.780Z,36.76
2019-04-21T11:27:24.731Z,37.25
2019-04-21T11:29:55.776Z,35.27
2019-04-21T11:32:27.331Z,33.19
2019-04-21T11:35:01.222Z,32.41
2019-04-21T11:37:34.507Z,29.08
2019-04-21T11:40:10.720Z,27.95
2019-04-21T11:42:40.150Z,27.43
2019-04-21T11:45:14.692Z,25.90
2019-04-21T11:48:04.238Z,25.90
2019-04-21T11:50:35.134Z,25.68
2019-04-21T11:53:07.076Z,24.98
2019-04-21T11:55:42.739Z,24.99
2019-04-21T11:58:10.359Z,25.15
2019-04-21T12:00:42.103Z,25.07
2019-04-21T12:03:15.253Z,25.12
2019-04-21T12:05:45.546Z,25.12
2019-04-21T12:08:24.931Z,24.86
2019-04-21T12:10:49.262Z,24.83
2019-04-21T12:13:20.432Z,24.84
2019-04-21T12:15:52.848Z,24.86
2019-04-21T12:18:26.321Z,24.86
2019-04-21T12:20:57.550Z,24.87
2019-04-21T12:23:28.197Z,24.76
2019-04-21T12:26:01.102Z,24.49
2019-04-21T12:28:32.408Z,24.59
2019-04-21T12:31:05.401Z,24.48
2019-04-21T12:33:54.122Z,24.28
2019-04-21T12:36:24.495Z,24.23
2019-04-21T12:38:59.317Z,24.26
2019-04-21T12:41:28.693Z,24.47
2019-04-21T12:44:00.465Z,24.53
2019-04-21T12:46:32.124Z,24.58
2019-04-21T12:49:04.060Z,24.63
2019-04-21T12:51:35.625Z,24.63
2019-04-21T12:54:08.033Z,24.81
2019-04-21T12:56:38.850Z,24.97
2019-04-21T12:59:09.994Z,24.94
2019-04-21T13:01:41.157Z,24.88
2019-04-21T13:04:11.826Z,24.88
2019-04-21T13:06:43.466Z,24.81
2019-04-21T13:09:18.323Z,24.69
2019-04-21T13:11:46.873Z,24.70
2019-04-21T13:14:17.978Z,24.75
2019-04-21T13:16:49.673Z,24.54
2019-04-21T13:19:21.064Z,24.48
2019-04-21T13:21:52.431Z,24.88
2019-04-21T13:24:24.120Z,25.04
2019-04-21T13:26:59.565Z,25.04
2019-04-21T13:29:28.421Z,25.07
2019-04-21T13:32:03.658Z,25.14
2019-04-21T13:34:33.758Z,25.27
2019-04-21T13:37:05.985Z,25.38
2019-04-21T13:40:07.556Z,25.36
2019-04-21T13:42:26.795Z,25.45
2019-04-21T13:44:56.196Z,25.44
2019-04-21T13:47:25.228Z,25.23
2019-04-21T13:49:57.877Z,25.08
2019-04-21T13:52:28.976Z,25.01
2019-04-21T13:54:59.626Z,24.99
2019-04-21T13:57:30.420Z,24.98
2019-04-21T14:00:01.516Z,25.09
2019-04-21T14:02:33.024Z,25.15
2019-04-21T14:05:08.691Z,24.88
2019-04-21T14:07:38.592Z,24.84
2019-04-21T14:10:12.409Z,24.90
2019-04-21T14:12:42.801Z,24.94
2019-04-21T14:15:14.648Z,25.02
2019-04-21T14:17:46.732Z,24.95
2019-04-21T14:20:19.523Z,24.76
2019-04-21T14:22:50.225Z,24.70
2019-04-21T14:25:21.644Z,24.65
2019-04-21T14:27:54.505Z,24.65
2019-04-21T14:30:28.121Z,24.76
2019-04-21T14:33:00.299Z,24.82
2019-04-21T14:35:30.983Z,24.87
2019-04-21T14:38:02.731Z,24.88
2019-04-21T14:40:36.681Z,24.95
2019-04-21T14:43:10.177Z,24.91
2019-04-21T14:46:00.971Z,24.90
2019-04-21T14:48:48.932Z,24.90
2019-04-21T14:51:37.009Z,24.86
2019-04-21T14:54:26.738Z,24.99
2019-04-21T14:56:57.678Z,25.10
2019-04-21T14:59:28.880Z,25.01
2019-04-21T15:01:59.972Z,25.14
2019-04-21T15:04:31.691Z,25.14
2019-04-21T15:07:03.337Z,25.08
2019-04-21T15:09:35.893Z,24.98
2019-04-21T15:12:07.853Z,24.86
2019-04-21T15:14:40.161Z,24.81
2019-04-21T15:17:10.953Z,24.91
2019-04-21T15:19:42.835Z,24.98
2019-04-21T15:22:14.511Z,25.01
2019-04-21T15:24:46.286Z,25.05
2019-04-21T15:27:17.159Z,25.00
2019-04-21T15:29:48.905Z,24.87
2019-04-21T15:32:19.479Z,24.61
2019-04-21T15:34:51.972Z,24.61
2019-04-21T15:37:24.134Z,24.52
2019-04-21T15:39:54.533Z,24.57
2019-04-21T15:42:26.342Z,24.63
2019-04-21T15:44:56.908Z,24.73
2019-04-21T15:47:29.574Z,24.79
2019-04-21T15:50:09.107Z,24.85
2019-04-21T15:52:35.841Z,24.88
2019-04-21T15:55:14.944Z,24.82
2019-04-21T15:58:07.351Z,24.78
2019-04-21T16:00:49.671Z,24.72
2019-04-21T16:03:20.741Z,24.67
2019-04-21T16:05:51.014Z,24.68
2019-04-21T16:08:22.016Z,24.59
2019-04-21T16:10:57.110Z,24.56
2019-04-21T16:13:27.708Z,24.48
2019-04-21T16:15:58.798Z,24.42
2019-04-21T16:18:32.548Z,24.37
2019-04-21T16:21:04.247Z,24.30
2019-04-21T16:23:36.087Z,24.22
2019-04-21T16:26:06.797Z,24.20
2019-04-21T16:28:42.082Z,24.18
2019-04-21T16:31:12.160Z,24.15
2019-04-21T16:33:43.225Z,24.15
2019-04-21T16:36:15.422Z,24.13
2019-04-21T16:38:47.323Z,24.09
2019-04-21T16:41:18.306Z,24.05
2019-04-21T16:43:51.388Z,23.98
2019-04-21T16:46:23.146Z,23.92
2019-04-21T16:48:53.876Z,23.88
2019-04-21T16:51:26.414Z,23.82
2019-04-21T16:54:08.172Z,23.67
2019-04-21T16:56:47.920Z,23.67
2019-04-21T16:59:32.722Z,23.65
2019-04-21T17:02:04.735Z,23.59
2019-04-21T17:04:36.348Z,23.54
2019-04-21T17:07:07.429Z,23.47
2019-04-21T17:09:38.899Z,23.40
2019-04-21T17:12:14.215Z,23.32
2019-04-21T17:14:57.154Z,23.25
2019-04-21T17:17:38.535Z,23.19
2019-04-21T17:19:53.797Z,23.13
2019-04-21T17:22:21.819Z,23.07
2019-04-21T17:24:52.679Z,23.00
2019-04-21T17:27:23.333Z,22.94
2019-04-21T17:29:54.922Z,22.90
2019-04-21T17:32:32.187Z,22.77
2019-04-21T17:34:58.073Z,22.77
2019-04-21T17:37:30.596Z,22.73
2019-04-21T17:40:05.121Z,22.66
2019-04-21T17:42:43.243Z,22.52
2019-04-21T17:45:06.998Z,22.41
2019-04-21T17:47:46.834Z,22.31
2019-04-21T17:50:29.457Z,22.26
2019-04-21T17:53:08.742Z,22.14
2019-04-21T17:55:40.586Z,21.93
2019-04-21T17:58:27.261Z,21.93
2019-04-21T18:01:10.041Z,21.92
2019-04-21T18:06:02.385Z,21.68
2019-04-21T18:08:41.361Z,21.55
2019-04-21T18:11:02.084Z,21.47
2019-04-21T18:13:26.703Z,21.41
2019-04-21T18:16:09.617Z,21.33
2019-04-21T18:18:30.597Z,21.17
2019-04-21T18:21:08.843Z,21.01
2019-04-21T18:24:00.090Z,20.90
2019-04-21T18:26:34.740Z,20.77
2019-04-21T18:28:56.925Z,20.62
2019-04-21T18:31:35.333Z,20.56
2019-04-21T18:34:32.373Z,20.54
2019-04-21T18:36:52.499Z,20.57
2019-04-21T18:39:52.648Z,20.52
2019-04-21T18:42:38.719Z,20.43
2019-04-21T18:45:43.201Z,20.28
2019-04-21T18:48:27.081Z,20.14
2019-04-21T18:51:22.935Z,19.99
2019-04-21T18:54:15.177Z,19.82
2019-04-21T18:56:29.683Z,19.70
2019-04-21T18:59:00.577Z,19.54
2019-04-21T19:01:34.803Z,19.48
2019-04-21T19:04:06.368Z,19.38
2019-04-21T19:06:51.426Z,19.38
2019-04-21T19:09:35.888Z,19.29
2019-04-21T19:12:05.236Z,19.23
2019-04-21T19:14:36.210Z,19.17
2019-04-21T19:17:38.159Z,19.11
2019-04-21T19:20:02.631Z,19.08
2019-04-21T19:22:15.325Z,19.03
2019-04-21T19:24:50.531Z,18.99
2019-04-21T19:27:23.743Z,18.90
2019-04-21T19:30:05.168Z,18.83
2019-04-21T19:32:23.846Z,18.76
2019-04-21T19:34:41.477Z,18.69
2019-04-21T19:37:17.356Z,18.68
2019-04-21T19:39:58.942Z,18.59
2019-04-21T19:42:25.652Z,18.47
2019-04-21T19:45:08.424Z,18.41
2019-04-21T19:47:44.943Z,18.38
2019-04-21T19:50:11.234Z,18.32
2019-04-21T19:52:36.794Z,18.23
2019-04-21T19:55:00.477Z,18.17
2019-04-21T19:57:34.708Z,18.00
2019-04-21T20:00:08.323Z,17.88
2019-04-21T20:02:40.499Z,17.85
2019-04-21T20:05:20.618Z,17.85
2019-04-21T20:08:03.652Z,17.73
2019-04-21T20:10:42.309Z,17.76
2019-04-21T20:13:14.647Z,17.69
2019-04-21T20:15:45.923Z,17.67
2019-04-21T20:18:07.092Z,17.60
2019-04-21T20:20:33.019Z,17.55
2019-04-21T20:23:05.182Z,17.51
2019-04-21T20:25:43.738Z,17.48
2019-04-21T20:28:21.338Z,17.42
2019-04-21T20:31:03.617Z,17.36
2019-04-21T20:33:50.602Z,17.35
2019-04-21T20:36:09.642Z,17.29
2019-04-21T20:38:34.018Z,17.21
2019-04-21T20:41:01.811Z,17.16
2019-04-21T20:43:43.539Z,17.12
2019-04-21T20:46:13.652Z,17.07
2019-04-21T20:48:42.818Z,17.03
2019-04-21T20:51:18.560Z,16.99
2019-04-21T20:53:50.268Z,16.97
2019-04-21T20:56:16.094Z,16.97
2019-04-21T20:58:55.442Z,16.89
2019-04-21T21:01:34.744Z,16.89
2019-04-21T21:03:58.088Z,16.84
2019-04-21T21:06:33.179Z,16.84
2019-04-21T21:09:04.827Z,16.82
2019-04-21T21:12:08.063Z,16.78
2019-04-21T21:14:16.025Z,16.75
2019-04-21T21:16:53.123Z,16.68
2019-04-21T21:19:43.962Z,16.68
2019-04-21T21:21:54.000Z,16.61
2019-04-21T21:24:36.182Z,16.59
2019-04-21T21:26:57.806Z,16.60
2019-04-21T21:29:33.485Z,16.54
2019-04-21T21:32:16.210Z,16.55
2019-04-21T21:34:44.419Z,16.56
2019-04-21T21:37:21.501Z,16.51
2019-04-21T21:42:07.310Z,16.35
2019-04-21T21:44:39.390Z,16.25
2019-04-21T21:47:22.688Z,15.98
2019-04-21T21:49:58.160Z,15.98
2019-04-21T21:52:34.334Z,15.85
2019-04-21T21:54:47.965Z,15.75
2019-04-21T21:57:18.795Z,15.71
2019-04-21T21:59:58.818Z,15.65
2019-04-21T22:02:34.931Z,15.61
2019-04-21T22:05:06.628Z,15.56
2019-04-21T22:07:33.225Z,15.54
2019-04-21T22:10:02.452Z,15.58
2019-04-21T22:12:43.522Z,15.59
2019-04-21T22:15:12.599Z,15.54
2019-04-21T22:17:54.296Z,15.45
2019-04-21T22:20:31.649Z,15.41
2019-04-21T22:22:51.992Z,15.34
2019-04-21T22:25:22.721Z,15.26
2019-04-21T22:27:48.842Z,15.23
2019-04-21T22:30:26.959Z,15.26
2019-04-21T22:32:59.882Z,15.28
2019-04-21T22:35:33.506Z,15.31
2019-04-21T22:38:15.009Z,15.25
2019-04-21T22:40:45.325Z,15.18
2019-04-21T22:43:11.937Z,15.05
2019-04-21T22:45:33.619Z,15.00
2019-04-21T22:48:13.547Z,14.91
2019-04-21T22:50:40.157Z,14.78
2019-04-21T22:53:15.398Z,14.69
2019-04-21T22:55:49.611Z,14.62
2019-04-21T22:58:28.317Z,14.58
2019-04-21T23:00:56.107Z,14.53
2019-04-21T23:03:25.203Z,14.41
2019-04-21T23:05:56.017Z,14.34
2019-04-21T23:08:32.975Z,14.29
2019-04-21T23:11:05.015Z,14.19
2019-04-21T23:13:32.803Z,14.08
2019-04-21T23:16:06.223Z,14.00
2019-04-21T23:18:50.198Z,13.93
2019-04-21T23:21:21.171Z,13.90
2019-04-21T23:24:01.778Z,13.89
2019-04-21T23:26:32.771Z,13.87
2019-04-21T23:29:10.315Z,13.84
2019-04-21T23:31:37.210Z,13.94
2019-04-21T23:33:50.356Z,13.82
2019-04-21T23:36:25.872Z,13.70
2019-04-21T23:38:56.434Z,13.55
2019-04-21T23:41:33.505Z,13.43
2019-04-21T23:44:02.941Z,13.33
2019-04-21T23:46:33.405Z,13.19
2019-04-21T23:49:15.041Z,13.08
2019-04-21T23:51:43.017Z,12.92
2019-04-21T23:54:07.012Z,12.82
2019-04-21T23:56:41.947Z,12.82
2019-04-21T23:59:11.557Z,12.77
